Time;durP1;ratioP1;P1;durP2;ratioP2;P2;SDS_P1;SDS_P2;PMS_P1;PMS_P2;Temp;Humidity;BMP_temperature;BMP_pressure;BME280_temperature;BME280_humidity;BME280_pressure;Samples;Min_cycle;Max_cycle;Signal;HPM_P1;HPM_P2
2021/12/24 00:00:26;;;;;;;3.70;3.03;;;;;;;;;;5026183;28;20207;-63
2021/12/24 00:02:54;;;;;;;4.70;3.33;;;;;;;;;;5023181;28;20212;-63
2021/12/24 00:05:23;;;;;;;8.33;3.17;;;;;;;;;;5024209;28;20215;-63
2021/12/24 00:07:50;;;;;;;4.17;2.90;;;;;;;;;;5024344;28;20243;-63
2021/12/24 00:10:17;;;;;;;3.80;2.80;;;;;;;;;;5021544;28;20211;-64
2021/12/24 00:12:48;;;;;;;6.43;2.70;;;;;;;;;;5026110;28;20307;-64
2021/12/24 00:15:44;;;;;;;3.07;2.67;;;;;;;;;;5024825;28;20233;-64
2021/12/24 00:18:20;;;;;;;5.90;2.57;;;;;;;;;;5028171;28;20233;-64
2021/12/24 00:37:30;;;;;;;3.00;2.30;;;;;;;;;;5030402;28;20685;-63
2021/12/24 00:40:08;;;;;;;5.07;2.70;;;;;;;;;;5030431;28;20238;-63
2021/12/24 00:42:35;;;;;;;4.97;3.37;;;;;;;;;;5025900;28;20212;-64
2021/12/24 00:45:02;;;;;;;4.83;3.33;;;;;;;;;;5028160;28;20212;-64
2021/12/24 00:47:29;;;;;;;2.87;2.60;;;;;;;;;;5028617;28;20227;-64
2021/12/24 00:49:57;;;;;;;5.50;3.57;;;;;;;;;;5028288;28;20220;-64
2021/12/24 00:52:44;;;;;;;5.37;2.97;;;;;;;;;;5018894;28;20200;-64
2021/12/24 00:55:12;;;;;;;2.90;2.70;;;;;;;;;;5028351;28;20295;-64
2021/12/24 00:57:40;;;;;;;4.47;2.93;;;;;;;;;;5030128;28;20204;-64
2021/12/24 01:00:10;;;;;;;4.27;3.17;;;;;;;;;;5028371;28;20208;-64
2021/12/24 01:02:37;;;;;;;3.27;2.17;;;;;;;;;;5029788;28;20204;-64
2021/12/24 01:05:06;;;;;;;7.80;3.00;;;;;;;;;;5030157;28;20200;-64
2021/12/24 01:07:33;;;;;;;6.93;2.83;;;;;;;;;;5030067;28;20212;-64
2021/12/24 01:10:00;;;;;;;3.40;3.10;;;;;;;;;;5030051;28;20206;-64
2021/12/24 01:12:29;;;;;;;3.17;2.87;;;;;;;;;;5029998;28;20231;-64
2021/12/24 01:14:56;;;;;;;4.27;2.97;;;;;;;;;;5023813;28;20236;-67
2021/12/24 01:17:33;;;;;;;2.80;2.60;;;;;;;;;;5030008;28;20220;-64
2021/12/24 01:20:06;;;;;;;3.83;2.80;;;;;;;;;;5029733;28;20693;-63
2021/12/24 01:25:25;;;;;;;3.53;3.27;;;;;;;;;;5028636;28;20282;-64
2021/12/24 01:28:11;;;;;;;3.50;3.20;;;;;;;;;;5027998;28;20210;-63
2021/12/24 01:39:04;;;;;;;2.87;2.43;;;;;;;;;;5029247;28;20234;-64
2021/12/24 01:44:22;;;;;;;3.97;2.60;;;;;;;;;;5026062;28;20203;-64
2021/12/24 01:46:49;;;;;;;5.23;3.27;;;;;;;;;;5028871;28;20734;-64
2021/12/24 01:49:16;;;;;;;4.47;2.97;;;;;;;;;;5027835;28;20216;-64
2021/12/24 01:51:43;;;;;;;10.73;3.27;;;;;;;;;;5028704;28;20208;-63
2021/12/24 01:54:11;;;;;;;2.83;2.57;;;;;;;;;;5028793;28;20211;-64
2021/12/24 01:56:38;;;;;;;4.77;3.37;;;;;;;;;;5028753;28;20265;-64
2021/12/24 01:59:06;;;;;;;3.13;2.83;;;;;;;;;;5028504;28;20235;-64
2021/12/24 02:01:34;;;;;;;3.17;2.87;;;;;;;;;;5028535;28;20263;-63
2021/12/24 02:04:01;;;;;;;3.27;2.93;;;;;;;;;;5028676;28;20209;-64
2021/12/24 02:06:28;;;;;;;2.70;2.60;;;;;;;;;;5029254;28;20212;-64
2021/12/24 02:08:55;;;;;;;3.90;2.57;;;;;;;;;;5029001;28;20197;-64
2021/12/24 02:11:22;;;;;;;4.30;3.00;;;;;;;;;;5025397;28;20216;-64
2021/12/24 02:13:49;;;;;;;2.90;2.23;;;;;;;;;;5023538;28;20239;-64
2021/12/24 02:16:24;;;;;;;3.67;3.13;;;;;;;;;;5028356;28;20208;-64
2021/12/24 02:29:54;;;;;;;3.53;3.10;;;;;;;;;;5027049;28;20203;-64
2021/12/24 02:32:21;;;;;;;3.53;2.43;;;;;;;;;;5028937;28;20556;-64
2021/12/24 02:34:48;;;;;;;5.30;3.07;;;;;;;;;;5028580;28;20215;-64
2021/12/24 02:37:18;;;;;;;4.90;2.97;;;;;;;;;;5028559;28;20201;-64
2021/12/24 02:39:45;;;;;;;4.33;3.03;;;;;;;;;;5028871;28;20224;-64
2021/12/24 02:42:13;;;;;;;4.67;2.53;;;;;;;;;;5028924;28;20708;-64
2021/12/24 02:44:40;;;;;;;4.50;2.57;;;;;;;;;;5028983;28;20205;-64
2021/12/24 02:47:11;;;;;;;3.00;2.73;;;;;;;;;;5028481;28;20200;-65
2021/12/24 02:55:10;;;;;;;3.27;2.23;;;;;;;;;;5028902;28;20215;-64
2021/12/24 02:57:39;;;;;;;3.80;2.90;;;;;;;;;;5030706;28;20211;-64
2021/12/24 03:00:13;;;;;;;3.40;3.10;;;;;;;;;;5029181;28;20315;-64
2021/12/24 03:02:40;;;;;;;3.03;2.20;;;;;;;;;;5030764;28;20235;-64
2021/12/24 03:05:08;;;;;;;5.93;3.10;;;;;;;;;;5030310;28;20801;-63
2021/12/24 03:07:36;;;;;;;2.90;2.20;;;;;;;;;;5032294;28;20215;-64
2021/12/24 03:10:05;;;;;;;3.03;2.20;;;;;;;;;;5032644;28;20689;-64
2021/12/24 03:12:32;;;;;;;3.23;2.37;;;;;;;;;;5032339;28;20311;-64
2021/12/24 03:14:59;;;;;;;5.23;3.07;;;;;;;;;;5032322;28;20236;-64
2021/12/24 03:17:27;;;;;;;3.27;2.27;;;;;;;;;;5031927;28;20615;-65
2021/12/24 03:19:57;;;;;;;3.33;2.47;;;;;;;;;;5031783;28;20221;-64
2021/12/24 03:22:40;;;;;;;2.63;2.17;;;;;;;;;;5031378;28;20572;-64
2021/12/24 03:25:09;;;;;;;2.20;2.00;;;;;;;;;;5032157;28;20208;-63
2021/12/24 03:27:36;;;;;;;5.47;2.10;;;;;;;;;;5032123;28;20851;-64
2021/12/24 03:30:04;;;;;;;3.70;2.43;;;;;;;;;;5031854;28;20212;-64
2021/12/24 03:32:31;;;;;;;2.20;2.00;;;;;;;;;;5029895;28;20623;-64
2021/12/24 03:34:58;;;;;;;5.73;2.43;;;;;;;;;;5031200;28;22119;-64
2021/12/24 03:37:25;;;;;;;2.40;1.97;;;;;;;;;;5031698;28;20211;-63
2021/12/24 03:39:52;;;;;;;2.17;2.03;;;;;;;;;;5028225;28;20235;-64
2021/12/24 03:42:20;;;;;;;1.97;1.87;;;;;;;;;;5031527;28;20204;-64
2021/12/24 03:44:54;;;;;;;2.20;1.60;;;;;;;;;;5031439;28;20204;-64
2021/12/24 03:47:22;;;;;;;2.27;2.07;;;;;;;;;;5031550;28;20231;-64
2021/12/24 03:49:56;;;;;;;2.10;2.00;;;;;;;;;;5031478;28;20772;-64
2021/12/24 03:52:39;;;;;;;2.63;1.63;;;;;;;;;;5031068;28;20200;-64
2021/12/24 03:55:06;;;;;;;4.00;2.13;;;;;;;;;;5029317;28;20777;-63
2021/12/24 03:57:35;;;;;;;2.10;2.00;;;;;;;;;;5031438;28;20200;-64
2021/12/24 04:00:08;;;;;;;2.50;2.23;;;;;;;;;;5031357;28;20228;-64
2021/12/24 04:02:35;;;;;;;2.20;2.00;;;;;;;;;;5031276;28;20853;-63
2021/12/24 04:05:02;;;;;;;2.30;1.70;;;;;;;;;;5029339;28;20216;-64
2021/12/24 04:07:29;;;;;;;1.87;1.77;;;;;;;;;;5030829;28;20212;-63
2021/12/24 04:10:02;;;;;;;2.53;2.10;;;;;;;;;;5023506;28;20257;-64
2021/12/24 04:12:29;;;;;;;2.40;2.20;;;;;;;;;;5029457;28;20266;-63
2021/12/24 04:14:57;;;;;;;1.77;1.67;;;;;;;;;;5031033;28;20236;-63
2021/12/24 04:17:25;;;;;;;1.87;1.77;;;;;;;;;;5026194;28;20216;-64
2021/12/24 04:25:24;;;;;;;2.03;1.80;;;;;;;;;;5030736;28;20284;-63
2021/12/24 04:27:53;;;;;;;5.37;2.10;;;;;;;;;;5030347;28;20204;-63
2021/12/24 04:30:26;;;;;;;4.67;2.20;;;;;;;;;;5029211;28;20196;-64
2021/12/24 04:33:00;;;;;;;2.93;2.27;;;;;;;;;;5030233;28;20208;-63
2021/12/24 04:38:39;;;;;;;4.47;2.03;;;;;;;;;;5016271;28;20211;-64
2021/12/24 04:52:08;;;;;;;3.10;2.80;;;;;;;;;;5018214;28;20445;-63
2021/12/24 05:02:59;;;;;;;3.00;2.70;;;;;;;;;;5029186;28;20208;-63
2021/12/24 05:05:37;;;;;;;7.50;3.03;;;;;;;;;;5029313;28;20208;-63
2021/12/24 05:08:16;;;;;;;3.97;3.00;;;;;;;;;;5028463;28;20205;-63
2021/12/24 05:10:44;;;;;;;4.83;3.20;;;;;;;;;;5028937;28;20207;-63
2021/12/24 05:13:12;;;;;;;4.00;2.63;;;;;;;;;;5028406;28;20212;-63
2021/12/24 05:15:41;;;;;;;3.47;2.77;;;;;;;;;;5028706;28;20244;-63
2021/12/24 05:23:36;;;;;;;3.80;2.77;;;;;;;;;;5024551;28;20326;-63
2021/12/24 05:26:04;;;;;;;2.97;2.63;;;;;;;;;;5028442;28;20211;-63
2021/12/24 05:28:31;;;;;;;3.47;2.90;;;;;;;;;;5027902;28;20200;-63
2021/12/24 05:30:58;;;;;;;5.37;2.80;;;;;;;;;;5028763;28;20322;-63
2021/12/24 05:33:27;;;;;;;6.80;3.27;;;;;;;;;;5028222;28;20208;-63
2021/12/24 05:35:55;;;;;;;3.73;3.23;;;;;;;;;;5028437;28;20439;-63
2021/12/24 05:38:24;;;;;;;4.40;3.17;;;;;;;;;;5028104;28;20204;-63
2021/12/24 05:40:51;;;;;;;5.03;3.10;;;;;;;;;;5028134;28;20231;-63
2021/12/24 05:43:18;;;;;;;6.90;3.30;;;;;;;;;;5027720;28;20212;-63
2021/12/24 05:45:45;;;;;;;3.93;3.30;;;;;;;;;;5026306;28;20247;-64
2021/12/24 05:48:13;;;;;;;4.80;3.27;;;;;;;;;;5027149;28;20204;-63
2021/12/24 05:50:41;;;;;;;8.93;3.20;;;;;;;;;;5028826;28;20215;-63
2021/12/24 05:53:08;;;;;;;4.07;3.17;;;;;;;;;;5028748;28;20204;-63
2021/12/24 05:55:35;;;;;;;4.90;3.33;;;;;;;;;;5028741;28;20850;-63
2021/12/24 05:58:06;;;;;;;6.83;3.93;;;;;;;;;;5021736;28;20212;-64
2021/12/24 06:00:33;;;;;;;7.33;3.30;;;;;;;;;;5028794;28;20354;-63
2021/12/24 06:03:00;;;;;;;5.73;2.87;;;;;;;;;;5028702;28;20216;-63
2021/12/24 06:05:27;;;;;;;4.53;3.87;;;;;;;;;;5028958;28;20706;-63
2021/12/24 06:07:55;;;;;;;4.73;3.53;;;;;;;;;;5027995;28;20208;-63
2021/12/24 06:10:23;;;;;;;8.27;3.30;;;;;;;;;;5028069;28;20212;-63
2021/12/24 06:12:50;;;;;;;4.77;2.93;;;;;;;;;;5028342;28;20211;-63
2021/12/24 06:15:22;;;;;;;5.17;3.70;;;;;;;;;;5028118;28;20247;-63
2021/12/24 06:17:52;;;;;;;7.10;3.50;;;;;;;;;;5028776;28;20204;-63
2021/12/24 06:20:19;;;;;;;3.60;3.00;;;;;;;;;;5028292;28;20227;-63
2021/12/24 06:22:46;;;;;;;4.47;3.57;;;;;;;;;;5027911;28;20734;-63
2021/12/24 06:25:15;;;;;;;4.83;2.97;;;;;;;;;;5028777;28;20589;-63
2021/12/24 06:27:42;;;;;;;5.73;3.50;;;;;;;;;;5028549;28;20287;-63
2021/12/24 06:30:10;;;;;;;5.07;3.73;;;;;;;;;;5028422;28;20208;-63
2021/12/24 06:32:37;;;;;;;6.07;3.27;;;;;;;;;;5032343;28;20214;-64
2021/12/24 06:35:04;;;;;;;4.47;3.60;;;;;;;;;;5032086;28;20211;-63
2021/12/24 06:37:31;;;;;;;5.13;3.83;;;;;;;;;;5031433;28;20204;-63
2021/12/24 06:39:59;;;;;;;12.20;4.10;;;;;;;;;;5032354;28;20224;-63
2021/12/24 06:42:27;;;;;;;4.27;3.50;;;;;;;;;;5032278;28;20223;-63
2021/12/24 06:44:54;;;;;;;5.27;3.80;;;;;;;;;;5030846;28;20215;-63
2021/12/24 06:47:21;;;;;;;6.20;3.43;;;;;;;;;;5031423;28;20216;-63
2021/12/24 06:49:48;;;;;;;5.73;3.50;;;;;;;;;;5031886;28;20243;-63
2021/12/24 06:52:15;;;;;;;5.20;3.93;;;;;;;;;;5032228;28;20231;-63
2021/12/24 06:54:42;;;;;;;8.07;4.27;;;;;;;;;;5030391;28;20674;-63
2021/12/24 06:57:15;;;;;;;6.27;4.03;;;;;;;;;;5020515;28;20670;-63
2021/12/24 06:59:43;;;;;;;4.87;3.57;;;;;;;;;;5031883;28;20763;-63
2021/12/24 07:02:10;;;;;;;4.80;3.67;;;;;;;;;;5031700;28;20239;-63
2021/12/24 07:04:37;;;;;;;7.50;4.40;;;;;;;;;;5029461;28;20208;-64
2021/12/24 07:07:05;;;;;;;7.70;4.13;;;;;;;;;;5031622;28;20589;-63
2021/12/24 07:09:32;;;;;;;7.27;4.57;;;;;;;;;;5031929;28;20212;-63
2021/12/24 07:11:59;;;;;;;5.93;3.93;;;;;;;;;;5029862;28;20219;-63
2021/12/24 07:14:26;;;;;;;10.90;4.63;;;;;;;;;;5027895;28;20243;-63
2021/12/24 07:16:54;;;;;;;8.37;4.57;;;;;;;;;;5031125;28;20211;-63
2021/12/24 07:19:22;;;;;;;6.47;4.03;;;;;;;;;;5031184;28;20201;-63
2021/12/24 07:21:49;;;;;;;8.03;4.33;;;;;;;;;;5031572;28;20902;-63
2021/12/24 07:24:16;;;;;;;9.20;4.07;;;;;;;;;;5031468;28;20204;-64
2021/12/24 07:26:43;;;;;;;6.73;3.83;;;;;;;;;;5031689;28;20208;-63
2021/12/24 07:29:10;;;;;;;5.37;3.70;;;;;;;;;;5023453;28;20204;-63
2021/12/24 07:31:37;;;;;;;5.83;3.97;;;;;;;;;;5029962;28;20227;-64
2021/12/24 07:34:06;;;;;;;6.07;4.03;;;;;;;;;;5029068;28;20197;-64
2021/12/24 07:36:33;;;;;;;7.87;4.00;;;;;;;;;;5030641;28;20220;-64
2021/12/24 07:39:00;;;;;;;6.80;4.00;;;;;;;;;;5031412;28;20211;-64
2021/12/24 07:41:27;;;;;;;5.50;4.03;;;;;;;;;;5013782;28;20220;-64
2021/12/24 07:43:55;;;;;;;5.73;4.10;;;;;;;;;;5030550;28;20206;-64
2021/12/24 07:46:24;;;;;;;5.67;4.20;;;;;;;;;;5031187;28;20515;-63
2021/12/24 07:49:01;;;;;;;5.40;3.50;;;;;;;;;;5030871;28;20218;-62
2021/12/24 07:54:14;;;;;;;5.30;3.90;;;;;;;;;;5030802;28;20226;-64
2021/12/24 07:56:41;;;;;;;6.30;3.47;;;;;;;;;;5030995;28;20586;-63
2021/12/24 07:59:09;;;;;;;5.67;3.37;;;;;;;;;;5031310;28;20208;-63
2021/12/24 08:01:36;;;;;;;3.93;3.13;;;;;;;;;;5028168;28;20228;-63
2021/12/24 08:04:03;;;;;;;5.40;3.83;;;;;;;;;;5029834;28;20576;-63
2021/12/24 08:06:32;;;;;;;5.33;3.40;;;;;;;;;;5029947;28;20228;-64
2021/12/24 08:08:59;;;;;;;4.63;3.20;;;;;;;;;;5030489;28;20209;-64
2021/12/24 08:11:26;;;;;;;4.77;3.17;;;;;;;;;;5031097;28;20205;-65
2021/12/24 08:13:53;;;;;;;5.03;4.23;;;;;;;;;;5030405;28;20263;-65
2021/12/24 08:16:20;;;;;;;5.53;3.60;;;;;;;;;;5030553;28;20204;-65
2021/12/24 08:18:47;;;;;;;6.03;3.90;;;;;;;;;;5029110;28;20228;-65
2021/12/24 08:21:14;;;;;;;10.77;3.73;;;;;;;;;;5030803;28;20247;-64
2021/12/24 08:23:45;;;;;;;4.97;3.27;;;;;;;;;;5030782;28;20702;-64
2021/12/24 08:26:12;;;;;;;5.23;3.80;;;;;;;;;;5030729;28;20205;-64
2021/12/24 08:28:39;;;;;;;4.20;3.30;;;;;;;;;;5033660;28;20204;-64
2021/12/24 08:31:06;;;;;;;5.20;3.70;;;;;;;;;;5026958;28;20670;-65
2021/12/24 08:33:34;;;;;;;4.53;3.50;;;;;;;;;;5023016;28;20208;-64
2021/12/24 08:36:03;;;;;;;4.93;3.80;;;;;;;;;;5039971;28;20835;-64
2021/12/24 08:38:30;;;;;;;8.00;3.37;;;;;;;;;;5034994;28;20207;-65
2021/12/24 08:40:58;;;;;;;3.23;2.93;;;;;;;;;;5032300;28;20228;-65
2021/12/24 08:43:25;;;;;;;2.97;2.67;;;;;;;;;;5026346;28;20200;-65
2021/12/24 08:45:52;;;;;;;3.20;2.90;;;;;;;;;;5029946;28;20208;-65
2021/12/24 08:48:20;;;;;;;3.67;2.87;;;;;;;;;;5029589;28;20216;-62
2021/12/24 08:50:47;;;;;;;2.90;2.63;;;;;;;;;;5029971;28;20731;-65
2021/12/24 08:53:14;;;;;;;3.27;2.63;;;;;;;;;;5029635;28;20215;-62
2021/12/24 08:55:41;;;;;;;3.43;2.90;;;;;;;;;;5046579;28;20215;-62
2021/12/24 08:58:09;;;;;;;4.67;2.83;;;;;;;;;;5031651;28;20701;-61
2021/12/24 09:00:37;;;;;;;3.73;2.97;;;;;;;;;;5029489;28;20224;-61
2021/12/24 09:03:04;;;;;;;8.77;4.03;;;;;;;;;;5027209;28;20209;-61
2021/12/24 09:05:32;;;;;;;6.20;3.13;;;;;;;;;;5028615;28;20216;-61
2021/12/24 09:07:59;;;;;;;4.37;2.97;;;;;;;;;;5029211;28;20223;-60
2021/12/24 09:10:26;;;;;;;7.93;2.83;;;;;;;;;;5029184;28;21006;-63
2021/12/24 09:12:53;;;;;;;3.50;3.20;;;;;;;;;;5029090;28;20223;-65
2021/12/24 09:15:21;;;;;;;4.60;3.40;;;;;;;;;;5022874;28;20282;-63
2021/12/24 09:17:48;;;;;;;3.40;3.10;;;;;;;;;;5021020;28;20201;-64
2021/12/24 09:20:18;;;;;;;2.47;2.33;;;;;;;;;;5033137;28;20204;-62
2021/12/24 09:22:47;;;;;;;3.27;2.97;;;;;;;;;;5028566;28;20212;-64
2021/12/24 09:25:14;;;;;;;6.13;2.90;;;;;;;;;;5021420;28;20212;-64
2021/12/24 09:27:41;;;;;;;2.63;2.43;;;;;;;;;;5020293;28;20204;-63
2021/12/24 09:30:09;;;;;;;4.40;2.47;;;;;;;;;;5028089;28;20211;-64
2021/12/24 09:32:38;;;;;;;2.73;2.53;;;;;;;;;;5025439;28;20208;-64
2021/12/24 09:35:07;;;;;;;3.13;2.87;;;;;;;;;;5018304;28;20212;-64
2021/12/24 09:37:34;;;;;;;2.83;2.53;;;;;;;;;;5019595;28;20208;-64
2021/12/24 09:40:01;;;;;;;2.97;2.77;;;;;;;;;;5025493;28;20204;-63
2021/12/24 09:42:29;;;;;;;3.30;3.10;;;;;;;;;;5026819;28;20232;-66
2021/12/24 09:44:56;;;;;;;7.70;3.13;;;;;;;;;;5026699;28;20274;-64
2021/12/24 09:47:24;;;;;;;2.70;2.50;;;;;;;;;;5021573;28;20208;-64
2021/12/24 09:49:52;;;;;;;3.90;3.03;;;;;;;;;;5023039;28;20254;-64
2021/12/24 09:52:21;;;;;;;5.30;2.77;;;;;;;;;;5023996;28;20197;-64
2021/12/24 09:54:49;;;;;;;3.27;2.10;;;;;;;;;;5029204;28;20212;-67
2021/12/24 09:57:16;;;;;;;2.77;2.57;;;;;;;;;;5026919;28;20209;-68
2021/12/24 09:59:43;;;;;;;3.50;2.63;;;;;;;;;;5022162;28;20770;-65
2021/12/24 10:02:15;;;;;;;3.10;2.63;;;;;;;;;;5017386;28;20228;-65
2021/12/24 10:04:43;;;;;;;4.77;2.13;;;;;;;;;;5024043;28;20577;-59
2021/12/24 10:07:12;;;;;;;2.63;2.43;;;;;;;;;;5024093;28;20257;-71
2021/12/24 10:09:42;;;;;;;2.53;2.33;;;;;;;;;;5023079;28;20223;-65
2021/12/24 10:12:13;;;;;;;2.53;2.30;;;;;;;;;;5024207;28;20748;-70
2021/12/24 10:14:41;;;;;;;2.60;2.30;;;;;;;;;;5024776;28;20240;-67
2021/12/24 10:17:15;;;;;;;2.30;2.10;;;;;;;;;;5026600;28;20215;-66
2021/12/24 10:19:45;;;;;;;2.23;1.77;;;;;;;;;;5024060;28;20208;-65
2021/12/24 10:22:14;;;;;;;4.13;2.77;;;;;;;;;;5024022;28;20745;-67
2021/12/24 10:24:41;;;;;;;2.40;2.20;;;;;;;;;;5022527;28;20211;-66
2021/12/24 10:27:08;;;;;;;2.83;2.37;;;;;;;;;;5026302;28;20208;-67
2021/12/24 10:29:37;;;;;;;2.20;2.10;;;;;;;;;;5024102;28;20456;-67
2021/12/24 10:32:09;;;;;;;3.47;2.40;;;;;;;;;;5024264;28;20512;-66
2021/12/24 10:34:37;;;;;;;1.87;1.73;;;;;;;;;;5024492;28;20667;-66
2021/12/24 10:37:06;;;;;;;1.77;1.67;;;;;;;;;;5023893;28;20211;-67
2021/12/24 10:39:37;;;;;;;2.37;2.27;;;;;;;;;;5024450;28;20224;-70
2021/12/24 10:42:06;;;;;;;3.83;2.67;;;;;;;;;;5025049;28;20232;-75
2021/12/24 10:44:34;;;;;;;2.50;2.30;;;;;;;;;;5024059;28;20223;-63
2021/12/24 10:47:04;;;;;;;2.23;1.83;;;;;;;;;;5022967;28;20209;-68
2021/12/24 10:49:50;;;;;;;2.20;2.00;;;;;;;;;;5023520;28;20311;-68
2021/12/24 10:52:31;;;;;;;2.43;2.23;;;;;;;;;;5023330;28;20219;-73
2021/12/24 10:55:00;;;;;;;2.27;2.07;;;;;;;;;;5029334;28;20208;-82
2021/12/24 10:57:28;;;;;;;2.10;2.00;;;;;;;;;;5023861;28;21029;-75
2021/12/24 10:59:56;;;;;;;1.83;1.73;;;;;;;;;;5023641;28;20224;-67
2021/12/24 11:02:28;;;;;;;2.73;2.53;;;;;;;;;;5023176;28;20282;-67
2021/12/24 11:04:55;;;;;;;2.53;2.10;;;;;;;;;;5023723;28;20212;-67
2021/12/24 11:07:32;;;;;;;3.13;2.00;;;;;;;;;;5023354;28;20250;-66
2021/12/24 11:10:11;;;;;;;2.90;2.30;;;;;;;;;;5021280;28;20219;-66
2021/12/24 11:12:39;;;;;;;3.63;2.03;;;;;;;;;;5023161;28;20693;-69
2021/12/24 11:15:18;;;;;;;3.53;2.70;;;;;;;;;;5021158;28;20244;-72
2021/12/24 11:17:45;;;;;;;6.77;2.50;;;;;;;;;;5024207;28;20215;-66
2021/12/24 11:20:12;;;;;;;6.60;2.40;;;;;;;;;;5026297;28;20224;-64
2021/12/24 11:22:50;;;;;;;3.00;2.63;;;;;;;;;;5026337;28;20698;-71
2021/12/24 11:25:19;;;;;;;2.47;2.33;;;;;;;;;;5027238;28;20215;-71
2021/12/24 11:27:47;;;;;;;3.43;3.13;;;;;;;;;;5026847;28;20216;-68
2021/12/24 11:30:14;;;;;;;3.83;2.93;;;;;;;;;;5026823;28;20212;-72
2021/12/24 11:32:41;;;;;;;4.00;2.57;;;;;;;;;;5027198;28;20291;-72
2021/12/24 11:35:10;;;;;;;2.83;2.63;;;;;;;;;;5027068;28;20207;-74
2021/12/24 11:37:38;;;;;;;3.23;2.90;;;;;;;;;;5027188;28;20282;-71
2021/12/24 11:40:06;;;;;;;3.10;2.30;;;;;;;;;;5027333;28;20239;-73
2021/12/24 11:42:39;;;;;;;2.60;2.40;;;;;;;;;;5026911;28;20247;-72
2021/12/24 11:45:06;;;;;;;2.23;1.97;;;;;;;;;;5025193;28;20294;-71
2021/12/24 11:47:34;;;;;;;3.63;2.73;;;;;;;;;;5026612;28;20303;-75
2021/12/24 11:50:01;;;;;;;3.00;2.77;;;;;;;;;;5025722;28;20317;-77
2021/12/24 11:52:28;;;;;;;2.33;2.23;;;;;;;;;;5025303;28;20231;-72
2021/12/24 11:54:55;;;;;;;2.57;2.40;;;;;;;;;;5030549;28;20307;-70
2021/12/24 11:57:23;;;;;;;3.07;2.80;;;;;;;;;;5025533;28;20908;-70
2021/12/24 11:59:51;;;;;;;3.77;3.07;;;;;;;;;;5027324;28;20208;-70
2021/12/24 12:02:45;;;;;;;2.63;2.43;;;;;;;;;;5026538;28;20224;-64
2021/12/24 12:05:13;;;;;;;3.83;2.50;;;;;;;;;;5026899;28;20287;-67
2021/12/24 12:07:40;;;;;;;3.60;3.00;;;;;;;;;;5019744;28;20544;-67
2021/12/24 12:10:08;;;;;;;5.57;2.80;;;;;;;;;;5026876;28;20208;-70
2021/12/24 12:12:35;;;;;;;3.67;2.50;;;;;;;;;;5025767;28;20295;-73
2021/12/24 12:15:21;;;;;;;3.13;2.83;;;;;;;;;;5015593;28;20251;-69
2021/12/24 12:17:52;;;;;;;5.67;2.23;;;;;;;;;;5026749;28;20227;-69
2021/12/24 12:20:45;;;;;;;2.67;2.47;;;;;;;;;;5021874;28;20231;-70
2021/12/24 12:23:27;;;;;;;3.47;2.80;;;;;;;;;;5027390;28;20414;-65
2021/12/24 12:25:54;;;;;;;2.33;2.07;;;;;;;;;;5023574;28;20655;-64
2021/12/24 12:31:21;;;;;;;2.10;1.80;;;;;;;;;;5022220;28;20204;-61
2021/12/24 12:33:49;;;;;;;2.40;2.10;;;;;;;;;;5026205;28;20240;-62
2021/12/24 12:36:16;;;;;;;2.47;2.27;;;;;;;;;;5026056;28;20207;-60
2021/12/24 12:38:45;;;;;;;2.57;2.40;;;;;;;;;;5025737;28;20213;-59
2021/12/24 12:41:20;;;;;;;2.20;2.00;;;;;;;;;;5026114;28;20215;-61
2021/12/24 12:43:48;;;;;;;2.63;1.90;;;;;;;;;;5025835;28;20692;-66
2021/12/24 12:46:19;;;;;;;2.20;1.80;;;;;;;;;;5024506;28;20219;-78
2021/12/24 12:48:51;;;;;;;6.57;2.20;;;;;;;;;;5025405;28;20721;-60
2021/12/24 12:51:21;;;;;;;1.93;1.80;;;;;;;;;;5025430;28;20205;-60
2021/12/24 12:53:51;;;;;;;4.20;2.60;;;;;;;;;;5024691;28;20216;-67
2021/12/24 12:56:22;;;;;;;2.63;2.40;;;;;;;;;;5025561;28;20811;-61
2021/12/24 12:58:50;;;;;;;4.20;2.70;;;;;;;;;;5025559;28;20204;-58
2021/12/24 13:01:18;;;;;;;3.03;2.37;;;;;;;;;;5025636;28;20203;-59
2021/12/24 13:04:06;;;;;;;2.93;2.17;;;;;;;;;;5025439;28;20290;-58
2021/12/24 13:06:48;;;;;;;2.67;2.43;;;;;;;;;;5024717;28;20219;-59
2021/12/24 13:09:18;;;;;;;1.90;1.87;;;;;;;;;;5024234;28;20350;-59
2021/12/24 13:11:47;;;;;;;4.70;2.80;;;;;;;;;;5024578;28;20219;-60
2021/12/24 13:14:15;;;;;;;2.73;2.53;;;;;;;;;;5024096;28;20326;-59
2021/12/24 13:16:46;;;;;;;3.13;2.83;;;;;;;;;;5024332;28;20238;-58
2021/12/24 13:19:26;;;;;;;2.20;2.00;;;;;;;;;;5024312;28;20943;-57
2021/12/24 13:24:41;;;;;;;3.30;2.03;;;;;;;;;;5024413;28;20280;-58
2021/12/24 13:27:08;;;;;;;2.30;2.10;;;;;;;;;;5024100;28;20968;-58
2021/12/24 13:29:36;;;;;;;2.72;2.53;;;;;;;;;;5023602;28;21342;-62
2021/12/24 13:32:05;;;;;;;2.20;2.00;;;;;;;;;;5008693;28;20200;-59
2021/12/24 13:34:32;;;;;;;4.37;3.00;;;;;;;;;;5023484;28;20282;-59
2021/12/24 13:37:01;;;;;;;2.40;2.20;;;;;;;;;;5025390;28;20208;-61
2021/12/24 13:39:28;;;;;;;2.50;2.10;;;;;;;;;;5024347;28;20251;-63
2021/12/24 13:42:04;;;;;;;2.60;2.40;;;;;;;;;;5023710;28;20224;-61
2021/12/24 13:44:32;;;;;;;3.63;2.70;;;;;;;;;;5024575;28;20211;-60
2021/12/24 13:47:10;;;;;;;3.17;2.53;;;;;;;;;;5024852;28;20219;-62
2021/12/24 13:49:56;;;;;;;3.17;2.60;;;;;;;;;;5026861;28;20230;-59
2021/12/24 13:55:19;;;;;;;2.70;2.50;;;;;;;;;;5023347;28;20235;-58
2021/12/24 13:57:53;;;;;;;2.50;2.40;;;;;;;;;;5025320;28;20215;-59
2021/12/24 14:00:20;;;;;;;2.03;1.93;;;;;;;;;;5025540;28;20232;-62
2021/12/24 14:05:56;;;;;;;2.50;2.30;;;;;;;;;;5017076;28;20287;-60
2021/12/24 14:08:25;;;;;;;2.53;2.33;;;;;;;;;;5025211;28;20216;-58
2021/12/24 14:11:03;;;;;;;2.97;2.67;;;;;;;;;;5024291;28;20208;-58
2021/12/24 14:13:36;;;;;;;2.30;2.20;;;;;;;;;;5005188;28;20233;-58
2021/12/24 14:16:11;;;;;;;3.93;2.63;;;;;;;;;;5010021;28;20206;-58
2021/12/24 14:18:51;;;;;;;2.63;2.53;;;;;;;;;;5024678;28;20230;-59
2021/12/24 14:21:47;;;;;;;3.53;2.80;;;;;;;;;;5023362;28;20703;-63
2021/12/24 14:24:35;;;;;;;3.57;3.20;;;;;;;;;;5024746;28;20204;-63
2021/12/24 14:27:02;;;;;;;3.23;3.03;;;;;;;;;;5024505;28;20559;-63
2021/12/24 14:29:35;;;;;;;6.97;3.10;;;;;;;;;;5022362;28;20211;-65
2021/12/24 14:32:03;;;;;;;5.17;3.03;;;;;;;;;;5024381;28;20204;-68
2021/12/24 14:34:32;;;;;;;2.57;2.37;;;;;;;;;;5023659;28;20204;-66
2021/12/24 14:36:59;;;;;;;2.97;2.50;;;;;;;;;;5018354;28;20222;-62
2021/12/24 14:39:26;;;;;;;2.30;2.20;;;;;;;;;;5024418;28;20209;-59
2021/12/24 14:42:09;;;;;;;2.73;2.17;;;;;;;;;;5024042;28;20208;-62
2021/12/24 14:44:38;;;;;;;3.03;1.50;;;;;;;;;;5023596;28;20208;-62
2021/12/24 14:47:05;;;;;;;2.63;2.07;;;;;;;;;;5023595;28;20242;-59
2021/12/24 14:49:33;;;;;;;2.23;2.13;;;;;;;;;;5011999;28;20228;-63
2021/12/24 14:52:14;;;;;;;2.27;1.73;;;;;;;;;;5026025;28;20554;-60
2021/12/24 14:54:56;;;;;;;2.93;1.87;;;;;;;;;;5027694;28;20219;-59
2021/12/24 14:57:24;;;;;;;1.97;1.80;;;;;;;;;;5028198;28;20211;-61
2021/12/24 14:59:52;;;;;;;1.90;1.87;;;;;;;;;;5028097;28;20216;-60
2021/12/24 15:02:20;;;;;;;2.93;2.23;;;;;;;;;;5028158;28;20278;-61
2021/12/24 15:04:55;;;;;;;1.87;1.77;;;;;;;;;;5024665;28;20877;-61
2021/12/24 15:07:29;;;;;;;1.63;1.57;;;;;;;;;;5028233;28;20306;-62
2021/12/24 15:10:08;;;;;;;2.13;1.80;;;;;;;;;;5027568;28;20222;-59
2021/12/24 15:12:41;;;;;;;1.90;1.80;;;;;;;;;;5027303;28;20232;-61
2021/12/24 15:15:10;;;;;;;2.20;2.00;;;;;;;;;;5024612;28;20327;-60
2021/12/24 15:17:38;;;;;;;2.17;2.07;;;;;;;;;;5028706;28;20216;-62
2021/12/24 15:20:06;;;;;;;1.73;1.73;;;;;;;;;;5016021;28;20308;-62
2021/12/24 15:22:33;;;;;;;1.93;1.67;;;;;;;;;;5026021;28;20236;-61
2021/12/24 15:25:00;;;;;;;1.87;1.77;;;;;;;;;;5027761;28;20227;-61
2021/12/24 15:27:32;;;;;;;1.67;1.57;;;;;;;;;;5027159;28;20200;-60
2021/12/24 15:29:59;;;;;;;1.23;1.23;;;;;;;;;;5027644;28;20619;-62
2021/12/24 15:32:27;;;;;;;3.53;1.63;;;;;;;;;;5027610;28;20205;-60
2021/12/24 15:34:54;;;;;;;2.17;1.97;;;;;;;;;;5027153;28;20215;-62
2021/12/24 15:37:22;;;;;;;1.87;1.77;;;;;;;;;;5027086;28;20208;-60
2021/12/24 15:39:49;;;;;;;2.13;2.03;;;;;;;;;;5026910;28;20217;-60
2021/12/24 15:42:16;;;;;;;1.90;1.80;;;;;;;;;;5027352;28;20212;-64
2021/12/24 15:44:47;;;;;;;2.00;1.90;;;;;;;;;;5026744;28;20238;-63
2021/12/24 15:47:14;;;;;;;2.80;2.20;;;;;;;;;;5027449;28;20269;-64
2021/12/24 15:49:43;;;;;;;3.07;2.87;;;;;;;;;;5026722;28;20231;-65
2021/12/24 15:52:10;;;;;;;3.37;3.07;;;;;;;;;;5026361;28;20211;-62
2021/12/24 15:54:37;;;;;;;2.63;2.43;;;;;;;;;;5027078;28;20741;-64
2021/12/24 15:57:05;;;;;;;2.33;2.13;;;;;;;;;;5037840;28;20211;-62
2021/12/24 15:59:33;;;;;;;2.97;2.70;;;;;;;;;;5025211;28;20323;-63
2021/12/24 16:05:04;;;;;;;4.70;3.07;;;;;;;;;;4980520;28;20412;-62
2021/12/24 16:07:31;;;;;;;3.77;3.13;;;;;;;;;;5014599;28;20258;-63
2021/12/24 16:09:58;;;;;;;2.57;2.30;;;;;;;;;;5026835;28;20219;-65
2021/12/24 16:12:26;;;;;;;1.90;1.80;;;;;;;;;;5025974;28;20209;-67
2021/12/24 16:14:55;;;;;;;4.80;3.33;;;;;;;;;;5026602;28;20291;-67
2021/12/24 16:17:22;;;;;;;5.10;3.33;;;;;;;;;;5024928;28;20213;-64
2021/12/24 16:19:50;;;;;;;3.27;2.80;;;;;;;;;;5027783;28;20220;-64
2021/12/24 16:22:20;;;;;;;3.73;3.37;;;;;;;;;;5025342;28;20285;-64
2021/12/24 16:24:47;;;;;;;4.23;3.60;;;;;;;;;;5026900;28;20208;-66
2021/12/24 16:27:14;;;;;;;2.33;2.13;;;;;;;;;;5026611;28;20215;-64
2021/12/24 16:29:46;;;;;;;3.07;2.53;;;;;;;;;;5026317;28;20200;-62
2021/12/24 16:32:13;;;;;;;3.57;3.33;;;;;;;;;;5026706;28;20287;-64
2021/12/24 16:34:41;;;;;;;2.87;2.70;;;;;;;;;;5039761;28;20192;-64